EWG2KD LDSP-EDDK
Flight info
| Callsign | EWG2KD |
|---|---|
| Flight time | 2h 6m |
| Altitude | 34000 |
| Route | ZDA DCT KUDUL DCT RI DCT EKSUM DCT SIMBA DCT RODIS DCT SULUS L604 MASEK/N0448F320 T841 ERNEP ERNEP1K |
| Aircraft | A320/M-SDE3FGHIRWY/LB1 |
Departure
| Time | 2026-04-30 10:13 |
|---|---|
| Airport | Split Saint Jerome Airport (LDSP) |
Arrival
| Time | 2026-04-30 12:19 |
|---|---|
| Airport | Cologne Bonn Airport (EDDK) |
| Time | Latitude | Longitude | Altitude | Speed | Heading |
|---|---|---|---|---|---|
| 2026-04-30 10:04 | 43.53507 | 16.29776 | 68 ft | 0 kts | 101° |
| 2026-04-30 10:07 | 43.53507 | 16.29775 | 68 ft | 0 kts | 101° |
| 2026-04-30 10:08 | 43.53505 | 16.29779 | 68 ft | 1 kts | 115° |
| 2026-04-30 10:08 | 43.53493 | 16.29775 | 60 ft | 3 kts | 208° |
| 2026-04-30 10:08 | 43.53510 | 16.29713 | 63 ft | 13 kts | 302° |
| 2026-04-30 10:09 | 43.53592 | 16.29622 | 66 ft | 16 kts | 323° |
| 2026-04-30 10:09 | 43.53692 | 16.29562 | 65 ft | 13 kts | 316° |
| 2026-04-30 10:09 | 43.53693 | 16.29465 | 82 ft | 11 kts | 255° |
| 2026-04-30 10:09 | 43.53645 | 16.29346 | 84 ft | 14 kts | 232° |
| 2026-04-30 10:10 | 43.53587 | 16.29240 | 82 ft | 15 kts | 233° |
| 2026-04-30 10:10 | 43.53514 | 16.29110 | 83 ft | 18 kts | 232° |
| 2026-04-30 10:10 | 43.53440 | 16.28977 | 82 ft | 18 kts | 232° |
| 2026-04-30 10:10 | 43.53362 | 16.28837 | 82 ft | 18 kts | 233° |
| 2026-04-30 10:11 | 43.53283 | 16.28690 | 81 ft | 20 kts | 233° |
| 2026-04-30 10:11 | 43.53198 | 16.28593 | 75 ft | 8 kts | 272° |
| 2026-04-30 10:11 | 43.53230 | 16.28595 | 75 ft | 7 kts | 46° |
| 2026-04-30 10:11 | 43.53236 | 16.28605 | 72 ft | 0 kts | 52° |
| 2026-04-30 10:12 | 43.53240 | 16.28612 | 73 ft | 8 kts | 52° |
| 2026-04-30 10:12 | 43.53427 | 16.28948 | 83 ft | 79 kts | 52° |
| 2026-04-30 10:12 | 43.53706 | 16.29458 | 82 ft | 118 kts | 53° |
| 2026-04-30 10:12 | 43.54289 | 16.30508 | 320 ft | 146 kts | 52° |
| 2026-04-30 10:13 | 43.54902 | 16.31625 | 1072 ft | 147 kts | 55° |
| 2026-04-30 10:13 | 43.55322 | 16.32947 | 1648 ft | 167 kts | 79° |
| 2026-04-30 10:13 | 43.55079 | 16.34595 | 2334 ft | 189 kts | 113° |
| 2026-04-30 10:13 | 43.54141 | 16.35924 | 3009 ft | 203 kts | 141° |
| 2026-04-30 10:14 | 43.52835 | 16.36839 | 3531 ft | 216 kts | 153° |
| 2026-04-30 10:14 | 43.51404 | 16.37504 | 4227 ft | 218 kts | 157° |
| 2026-04-30 10:14 | 43.48408 | 16.38952 | 5319 ft | 246 kts | 147° |
| 2026-04-30 10:15 | 43.46861 | 16.40166 | 5495 ft | 264 kts | 152° |
| 2026-04-30 10:15 | 43.45033 | 16.40539 | 5590 ft | 278 kts | 191° |
| 2026-04-30 10:15 | 43.43352 | 16.39278 | 6475 ft | 281 kts | 225° |
| 2026-04-30 10:15 | 43.42139 | 16.37172 | 7326 ft | 283 kts | 240° |
| 2026-04-30 10:16 | 43.41374 | 16.34700 | 8188 ft | 282 kts | 262° |
| 2026-04-30 10:16 | 43.41345 | 16.32041 | 9037 ft | 279 kts | 285° |
| 2026-04-30 10:16 | 43.42078 | 16.29604 | 9907 ft | 276 kts | 308° |
| 2026-04-30 10:17 | 43.44359 | 16.26285 | 10601 ft | 307 kts | 317° |
| 2026-04-30 10:17 | 43.47610 | 16.21933 | 11462 ft | 337 kts | 317° |
| 2026-04-30 10:17 | 43.49296 | 16.19665 | 12192 ft | 341 kts | 317° |
| 2026-04-30 10:18 | 43.50998 | 16.17360 | 12937 ft | 345 kts | 317° |
| 2026-04-30 10:18 | 43.52716 | 16.15025 | 13735 ft | 349 kts | 316° |
| 2026-04-30 10:18 | 43.54449 | 16.12661 | 14447 ft | 352 kts | 316° |
| 2026-04-30 10:19 | 43.57948 | 16.07869 | 15856 ft | 357 kts | 315° |
| 2026-04-30 10:19 | 43.59716 | 16.05447 | 16550 ft | 359 kts | 315° |
| 2026-04-30 10:19 | 43.61493 | 16.03009 | 17238 ft | 361 kts | 315° |
| 2026-04-30 10:19 | 43.63281 | 16.00557 | 17923 ft | 363 kts | 314° |
| 2026-04-30 10:20 | 43.65075 | 15.98093 | 18567 ft | 365 kts | 314° |
| 2026-04-30 10:20 | 43.68700 | 15.93117 | 19703 ft | 369 kts | 314° |
| 2026-04-30 10:20 | 43.70527 | 15.90607 | 20267 ft | 372 kts | 314° |
| 2026-04-30 10:21 | 43.72368 | 15.88076 | 20820 ft | 374 kts | 314° |
| 2026-04-30 10:21 | 43.74217 | 15.85537 | 21365 ft | 376 kts | 314° |
| 2026-04-30 10:21 | 43.76080 | 15.82973 | 21886 ft | 379 kts | 314° |
| 2026-04-30 10:21 | 43.77951 | 15.80392 | 22400 ft | 381 kts | 314° |
| 2026-04-30 10:22 | 43.79832 | 15.77792 | 22910 ft | 383 kts | 313° |
| 2026-04-30 10:22 | 43.81725 | 15.75175 | 23405 ft | 386 kts | 313° |
| 2026-04-30 10:22 | 43.83631 | 15.72540 | 23873 ft | 388 kts | 313° |
| 2026-04-30 10:22 | 43.85547 | 15.69886 | 24282 ft | 390 kts | 313° |
| 2026-04-30 10:23 | 43.87469 | 15.67222 | 24695 ft | 392 kts | 313° |
| 2026-04-30 10:23 | 43.89404 | 15.64536 | 25087 ft | 394 kts | 313° |
| 2026-04-30 10:23 | 43.91343 | 15.61840 | 25490 ft | 396 kts | 313° |
| 2026-04-30 10:23 | 43.93292 | 15.59127 | 25900 ft | 398 kts | 313° |
| 2026-04-30 10:24 | 43.95246 | 15.56402 | 26302 ft | 400 kts | 313° |
| 2026-04-30 10:24 | 43.97383 | 15.53908 | 26673 ft | 405 kts | 325° |
| 2026-04-30 10:24 | 43.99854 | 15.51986 | 27043 ft | 409 kts | 328° |
| 2026-04-30 10:24 | 44.02363 | 15.50102 | 27411 ft | 411 kts | 328° |
| 2026-04-30 10:25 | 44.04889 | 15.48226 | 27769 ft | 413 kts | 328° |
| 2026-04-30 10:25 | 44.07431 | 15.46346 | 28109 ft | 415 kts | 328° |
| 2026-04-30 10:25 | 44.09987 | 15.44451 | 28442 ft | 417 kts | 328° |
| 2026-04-30 10:25 | 44.12551 | 15.42542 | 28769 ft | 419 kts | 328° |
| 2026-04-30 10:26 | 44.15129 | 15.40615 | 29099 ft | 421 kts | 328° |
| 2026-04-30 10:26 | 44.17713 | 15.38679 | 29401 ft | 423 kts | 328° |
| 2026-04-30 10:26 | 44.20315 | 15.36727 | 29710 ft | 425 kts | 328° |
| 2026-04-30 10:26 | 44.22920 | 15.34770 | 30098 ft | 425 kts | 328° |
| 2026-04-30 10:27 | 44.25524 | 15.32813 | 30518 ft | 424 kts | 328° |
| 2026-04-30 10:27 | 44.28115 | 15.30864 | 30886 ft | 423 kts | 328° |
| 2026-04-30 10:27 | 44.30706 | 15.28913 | 31254 ft | 422 kts | 328° |
| 2026-04-30 10:27 | 44.33291 | 15.26967 | 31632 ft | 421 kts | 328° |
| 2026-04-30 10:28 | 44.35870 | 15.25022 | 32002 ft | 421 kts | 328° |
| 2026-04-30 10:28 | 44.38441 | 15.23082 | 32358 ft | 420 kts | 328° |
| 2026-04-30 10:28 | 44.41008 | 15.21141 | 32723 ft | 419 kts | 328° |
| 2026-04-30 10:28 | 44.43570 | 15.19203 | 33092 ft | 418 kts | 328° |
| 2026-04-30 10:29 | 44.46127 | 15.17268 | 33459 ft | 417 kts | 328° |
| 2026-04-30 10:29 | 44.48680 | 15.15333 | 33839 ft | 417 kts | 328° |
| 2026-04-30 10:29 | 44.51227 | 15.13398 | 34193 ft | 417 kts | 328° |
| 2026-04-30 10:29 | 44.53771 | 15.11457 | 34274 ft | 416 kts | 328° |
| 2026-04-30 10:30 | 44.58862 | 15.07572 | 34281 ft | 416 kts | 328° |
| 2026-04-30 10:30 | 44.63961 | 15.03689 | 34278 ft | 417 kts | 328° |
| 2026-04-30 10:31 | 44.69060 | 14.99797 | 34282 ft | 417 kts | 328° |
| 2026-04-30 10:31 | 44.71733 | 14.98171 | 34284 ft | 422 kts | 339° |
| 2026-04-30 10:31 | 44.74557 | 14.97017 | 34289 ft | 423 kts | 340° |
| 2026-04-30 10:32 | 44.80224 | 14.94723 | 34288 ft | 424 kts | 340° |
| 2026-04-30 10:32 | 44.85886 | 14.92428 | 34298 ft | 423 kts | 340° |
| 2026-04-30 10:33 | 44.91554 | 14.90129 | 34296 ft | 423 kts | 340° |
| 2026-04-30 10:33 | 44.97213 | 14.87827 | 34308 ft | 423 kts | 340° |
| 2026-04-30 10:34 | 45.02873 | 14.85516 | 34312 ft | 423 kts | 340° |
| 2026-04-30 10:34 | 45.08526 | 14.83189 | 34316 ft | 423 kts | 340° |
| 2026-04-30 10:35 | 45.14183 | 14.80867 | 34318 ft | 423 kts | 340° |
| 2026-04-30 10:35 | 45.19842 | 14.78551 | 34320 ft | 423 kts | 340° |
| 2026-04-30 10:36 | 45.25499 | 14.76215 | 34291 ft | 423 kts | 340° |
| 2026-04-30 10:36 | 45.31153 | 14.73872 | 34299 ft | 423 kts | 340° |
| 2026-04-30 10:37 | 45.36808 | 14.71531 | 34297 ft | 423 kts | 340° |
| 2026-04-30 10:37 | 45.42462 | 14.69191 | 34306 ft | 423 kts | 340° |
| 2026-04-30 10:38 | 45.48109 | 14.66849 | 34323 ft | 423 kts | 340° |
| 2026-04-30 10:38 | 45.53764 | 14.64493 | 34334 ft | 423 kts | 340° |
| 2026-04-30 10:39 | 45.59417 | 14.62140 | 34349 ft | 423 kts | 340° |
| 2026-04-30 10:39 | 45.65060 | 14.59782 | 34353 ft | 422 kts | 340° |
| 2026-04-30 10:40 | 45.70702 | 14.57426 | 34354 ft | 422 kts | 340° |
| 2026-04-30 10:40 | 45.76169 | 14.54485 | 34354 ft | 419 kts | 334° |
| 2026-04-30 10:41 | 45.81559 | 14.51290 | 34354 ft | 419 kts | 334° |
| 2026-04-30 10:41 | 45.86945 | 14.48104 | 34355 ft | 419 kts | 334° |
| 2026-04-30 10:42 | 45.92331 | 14.44917 | 34355 ft | 419 kts | 334° |
| 2026-04-30 10:42 | 45.97719 | 14.41729 | 34356 ft | 419 kts | 334° |
| 2026-04-30 10:43 | 46.03100 | 14.38533 | 34354 ft | 418 kts | 334° |
| 2026-04-30 10:43 | 46.08480 | 14.35321 | 34357 ft | 418 kts | 334° |
| 2026-04-30 10:44 | 46.13856 | 14.32105 | 34353 ft | 418 kts | 334° |
| 2026-04-30 10:44 | 46.19229 | 14.28892 | 34361 ft | 418 kts | 334° |
| 2026-04-30 10:45 | 46.24595 | 14.25671 | 34358 ft | 418 kts | 334° |
| 2026-04-30 10:45 | 46.29965 | 14.22452 | 34365 ft | 418 kts | 334° |
| 2026-04-30 10:46 | 46.35334 | 14.19227 | 34371 ft | 417 kts | 334° |
| 2026-04-30 10:46 | 46.40695 | 14.15993 | 34386 ft | 417 kts | 334° |
| 2026-04-30 10:47 | 46.46042 | 14.12753 | 34385 ft | 416 kts | 334° |
| 2026-04-30 10:47 | 46.51383 | 14.09499 | 34387 ft | 416 kts | 334° |
| 2026-04-30 10:48 | 46.56718 | 14.06248 | 34383 ft | 415 kts | 334° |
| 2026-04-30 10:48 | 46.62046 | 14.03009 | 34382 ft | 415 kts | 334° |
| 2026-04-30 10:49 | 46.67382 | 13.99766 | 34373 ft | 415 kts | 334° |
| 2026-04-30 10:49 | 46.72710 | 13.96514 | 34375 ft | 415 kts | 333° |
| 2026-04-30 10:50 | 46.77135 | 13.93796 | 34363 ft | 415 kts | 333° |
| 2026-04-30 10:50 | 46.82464 | 13.90519 | 34354 ft | 415 kts | 333° |
| 2026-04-30 10:51 | 46.88659 | 13.86708 | 34352 ft | 415 kts | 333° |
| 2026-04-30 10:51 | 46.93111 | 13.83963 | 34350 ft | 415 kts | 333° |
| 2026-04-30 10:52 | 46.98421 | 13.80680 | 34339 ft | 414 kts | 333° |
| 2026-04-30 10:52 | 47.03727 | 13.77398 | 34334 ft | 414 kts | 333° |
| 2026-04-30 10:53 | 47.09025 | 13.74115 | 34329 ft | 413 kts | 333° |
| 2026-04-30 10:53 | 47.14320 | 13.70817 | 34322 ft | 413 kts | 333° |
| 2026-04-30 10:54 | 47.19608 | 13.67526 | 34308 ft | 413 kts | 333° |
| 2026-04-30 10:54 | 47.24902 | 13.64221 | 34318 ft | 413 kts | 333° |
| 2026-04-30 10:55 | 47.30196 | 13.60902 | 34317 ft | 413 kts | 333° |
| 2026-04-30 10:55 | 47.35483 | 13.57583 | 34318 ft | 413 kts | 333° |
| 2026-04-30 10:56 | 47.40778 | 13.54259 | 34317 ft | 413 kts | 333° |
| 2026-04-30 10:56 | 47.46023 | 13.50959 | 34325 ft | 412 kts | 332° |
| 2026-04-30 10:57 | 47.51302 | 13.47621 | 34338 ft | 413 kts | 333° |
| 2026-04-30 10:57 | 47.56583 | 13.44278 | 34341 ft | 413 kts | 333° |
| 2026-04-30 10:58 | 47.61862 | 13.40938 | 34350 ft | 412 kts | 332° |
| 2026-04-30 10:58 | 47.67131 | 13.37582 | 34363 ft | 412 kts | 332° |
| 2026-04-30 10:59 | 47.72395 | 13.34219 | 34371 ft | 412 kts | 332° |
| 2026-04-30 10:59 | 47.77660 | 13.30863 | 34376 ft | 412 kts | 332° |
| 2026-04-30 11:00 | 47.82924 | 13.27496 | 34375 ft | 412 kts | 332° |
| 2026-04-30 11:00 | 47.88188 | 13.24116 | 34375 ft | 411 kts | 332° |
| 2026-04-30 11:01 | 47.93450 | 13.20732 | 34363 ft | 412 kts | 332° |
| 2026-04-30 11:01 | 47.98727 | 13.17344 | 34368 ft | 413 kts | 332° |
| 2026-04-30 11:02 | 48.04005 | 13.13937 | 34375 ft | 414 kts | 332° |
| 2026-04-30 11:02 | 48.09298 | 13.10508 | 34509 ft | 417 kts | 332° |
| 2026-04-30 11:03 | 48.11961 | 13.08779 | 34791 ft | 417 kts | 332° |
| 2026-04-30 11:03 | 48.14627 | 13.07044 | 35090 ft | 418 kts | 332° |
| 2026-04-30 11:03 | 48.17295 | 13.05308 | 35362 ft | 419 kts | 332° |
| 2026-04-30 11:04 | 48.22644 | 13.01827 | 35871 ft | 419 kts | 331° |
| 2026-04-30 11:04 | 48.25214 | 12.99783 | 36095 ft | 418 kts | 328° |
| 2026-04-30 11:04 | 48.27756 | 12.97658 | 36338 ft | 418 kts | 328° |
| 2026-04-30 11:04 | 48.30303 | 12.95524 | 36579 ft | 419 kts | 328° |
| 2026-04-30 11:05 | 48.32848 | 12.93392 | 36818 ft | 419 kts | 328° |
| 2026-04-30 11:05 | 48.35399 | 12.91252 | 37051 ft | 420 kts | 328° |
| 2026-04-30 11:05 | 48.37954 | 12.89111 | 37275 ft | 420 kts | 328° |
| 2026-04-30 11:05 | 48.40510 | 12.86970 | 37503 ft | 421 kts | 328° |
| 2026-04-30 11:06 | 48.43071 | 12.84823 | 37731 ft | 421 kts | 328° |
| 2026-04-30 11:06 | 48.45629 | 12.82676 | 37952 ft | 421 kts | 328° |
| 2026-04-30 11:06 | 48.48189 | 12.80527 | 38173 ft | 421 kts | 328° |
| 2026-04-30 11:06 | 48.50750 | 12.78374 | 38380 ft | 422 kts | 328° |
| 2026-04-30 11:07 | 48.53306 | 12.76178 | 38433 ft | 422 kts | 324° |
| 2026-04-30 11:07 | 48.57860 | 12.70647 | 38435 ft | 421 kts | 319° |
| 2026-04-30 11:08 | 48.62346 | 12.64953 | 38434 ft | 421 kts | 319° |
| 2026-04-30 11:08 | 48.66830 | 12.59242 | 38434 ft | 421 kts | 319° |
| 2026-04-30 11:09 | 48.71317 | 12.53518 | 38433 ft | 422 kts | 319° |
| 2026-04-30 11:09 | 48.75803 | 12.47775 | 38434 ft | 423 kts | 319° |
| 2026-04-30 11:10 | 48.80304 | 12.42022 | 38435 ft | 423 kts | 319° |
| 2026-04-30 11:10 | 48.84801 | 12.36253 | 38433 ft | 423 kts | 319° |
| 2026-04-30 11:11 | 48.89290 | 12.30462 | 38439 ft | 424 kts | 319° |
| 2026-04-30 11:11 | 48.93787 | 12.24655 | 38435 ft | 424 kts | 319° |
| 2026-04-30 11:12 | 48.98282 | 12.18845 | 38432 ft | 424 kts | 319° |
| 2026-04-30 11:12 | 49.02772 | 12.13013 | 38427 ft | 424 kts | 319° |
| 2026-04-30 11:13 | 49.07266 | 12.07162 | 38428 ft | 425 kts | 319° |
| 2026-04-30 11:13 | 49.11768 | 12.01300 | 38423 ft | 426 kts | 320° |
| 2026-04-30 11:14 | 49.16276 | 11.95412 | 38421 ft | 426 kts | 320° |
| 2026-04-30 11:14 | 49.20784 | 11.89509 | 38420 ft | 427 kts | 320° |
| 2026-04-30 11:15 | 49.25293 | 11.83590 | 38423 ft | 427 kts | 320° |
| 2026-04-30 11:15 | 49.29769 | 11.77692 | 38422 ft | 427 kts | 320° |
| 2026-04-30 11:16 | 49.34267 | 11.71740 | 38425 ft | 427 kts | 320° |
| 2026-04-30 11:16 | 49.38767 | 11.65789 | 38425 ft | 427 kts | 320° |
| 2026-04-30 11:17 | 49.43269 | 11.59825 | 38429 ft | 428 kts | 320° |
| 2026-04-30 11:17 | 49.47770 | 11.53844 | 38430 ft | 428 kts | 320° |
| 2026-04-30 11:18 | 49.52274 | 11.47849 | 38432 ft | 428 kts | 320° |
| 2026-04-30 11:18 | 49.59021 | 11.38812 | 38434 ft | 429 kts | 320° |
| 2026-04-30 11:19 | 49.63553 | 11.32732 | 38437 ft | 429 kts | 320° |
| 2026-04-30 11:19 | 49.68054 | 11.26674 | 38439 ft | 429 kts | 320° |
| 2026-04-30 11:20 | 49.72525 | 11.20648 | 38431 ft | 429 kts | 320° |
| 2026-04-30 11:20 | 49.77051 | 11.14528 | 38429 ft | 429 kts | 320° |
| 2026-04-30 11:21 | 49.81514 | 11.08469 | 38423 ft | 429 kts | 320° |
| 2026-04-30 11:21 | 49.86000 | 11.02363 | 38425 ft | 429 kts | 320° |
| 2026-04-30 11:22 | 49.90492 | 10.96248 | 38418 ft | 430 kts | 321° |
| 2026-04-30 11:22 | 49.94986 | 10.90118 | 38432 ft | 430 kts | 321° |
| 2026-04-30 11:23 | 49.99475 | 10.83963 | 38425 ft | 430 kts | 321° |
| 2026-04-30 11:24 | 50.06208 | 10.74707 | 38428 ft | 431 kts | 321° |
| 2026-04-30 11:24 | 50.10567 | 10.68292 | 38436 ft | 432 kts | 316° |
| 2026-04-30 11:25 | 50.16708 | 10.57965 | 38434 ft | 433 kts | 315° |
| 2026-04-30 11:26 | 50.24959 | 10.44247 | 38429 ft | 433 kts | 317° |
| 2026-04-30 11:26 | 50.29181 | 10.37531 | 38431 ft | 433 kts | 317° |
| 2026-04-30 11:27 | 50.33403 | 10.30795 | 38424 ft | 434 kts | 317° |
| 2026-04-30 11:27 | 50.37509 | 10.23859 | 38423 ft | 435 kts | 314° |
| 2026-04-30 11:28 | 50.43617 | 10.13338 | 38424 ft | 435 kts | 317° |
| 2026-04-30 11:29 | 50.47793 | 10.06456 | 38421 ft | 436 kts | 316° |
| 2026-04-30 11:29 | 50.53959 | 9.95922 | 38441 ft | 437 kts | 315° |
| 2026-04-30 11:30 | 50.59235 | 9.86171 | 38428 ft | 438 kts | 313° |
| 2026-04-30 11:30 | 50.61151 | 9.82441 | 38251 ft | 438 kts | 312° |
| 2026-04-30 11:31 | 50.63063 | 9.78713 | 37539 ft | 438 kts | 313° |
| 2026-04-30 11:31 | 50.64991 | 9.74976 | 36759 ft | 440 kts | 313° |
| 2026-04-30 11:31 | 50.66936 | 9.71244 | 35984 ft | 442 kts | 314° |
| 2026-04-30 11:31 | 50.68899 | 9.67497 | 35220 ft | 445 kts | 315° |
| 2026-04-30 11:32 | 50.70880 | 9.63726 | 34459 ft | 447 kts | 315° |
| 2026-04-30 11:32 | 50.73336 | 9.58443 | 33256 ft | 457 kts | 306° |
| 2026-04-30 11:32 | 50.74335 | 9.55487 | 32628 ft | 462 kts | 302° |
| 2026-04-30 11:33 | 50.77247 | 9.46340 | 30704 ft | 471 kts | 302° |
| 2026-04-30 11:33 | 50.78424 | 9.41452 | 29629 ft | 481 kts | 290° |
| 2026-04-30 11:33 | 50.79318 | 9.36343 | 28476 ft | 481 kts | 289° |
| 2026-04-30 11:33 | 50.80184 | 9.31263 | 27748 ft | 476 kts | 288° |
| 2026-04-30 11:34 | 50.81028 | 9.26224 | 27028 ft | 472 kts | 288° |
| 2026-04-30 11:34 | 50.81860 | 9.21236 | 26352 ft | 467 kts | 288° |
| 2026-04-30 11:34 | 50.82685 | 9.16292 | 25696 ft | 463 kts | 288° |
| 2026-04-30 11:34 | 50.83501 | 9.11401 | 25060 ft | 458 kts | 288° |
| 2026-04-30 11:35 | 50.84313 | 9.06540 | 24439 ft | 454 kts | 288° |
| 2026-04-30 11:35 | 50.85117 | 9.01722 | 23795 ft | 450 kts | 288° |
| 2026-04-30 11:35 | 50.85911 | 8.96951 | 23102 ft | 447 kts | 288° |
| 2026-04-30 11:35 | 50.86698 | 8.92216 | 22441 ft | 443 kts | 288° |
| 2026-04-30 11:36 | 50.87477 | 8.87521 | 21806 ft | 439 kts | 288° |
| 2026-04-30 11:36 | 50.88250 | 8.82847 | 21482 ft | 439 kts | 287° |
| 2026-04-30 11:36 | 50.89019 | 8.78170 | 21413 ft | 438 kts | 287° |
| 2026-04-30 11:36 | 50.89784 | 8.73491 | 21433 ft | 439 kts | 287° |
| 2026-04-30 11:37 | 50.90550 | 8.68809 | 21431 ft | 439 kts | 287° |
| 2026-04-30 11:37 | 50.91316 | 8.64127 | 21419 ft | 438 kts | 287° |
| 2026-04-30 11:37 | 50.92071 | 8.59478 | 20904 ft | 434 kts | 287° |
| 2026-04-30 11:37 | 50.92817 | 8.54866 | 20276 ft | 431 kts | 287° |
| 2026-04-30 11:38 | 50.93557 | 8.50283 | 19702 ft | 428 kts | 287° |
| 2026-04-30 11:38 | 50.94295 | 8.45715 | 19455 ft | 428 kts | 287° |
| 2026-04-30 11:38 | 50.95033 | 8.41145 | 19402 ft | 427 kts | 287° |
| 2026-04-30 11:38 | 50.95771 | 8.36572 | 19416 ft | 428 kts | 286° |
| 2026-04-30 11:39 | 50.96500 | 8.31991 | 19418 ft | 429 kts | 287° |
| 2026-04-30 11:39 | 50.97190 | 8.27391 | 19414 ft | 429 kts | 282° |
| 2026-04-30 11:39 | 50.97657 | 8.22729 | 19103 ft | 425 kts | 281° |
| 2026-04-30 11:39 | 50.98107 | 8.18109 | 18502 ft | 423 kts | 280° |
| 2026-04-30 11:40 | 50.98556 | 8.13517 | 17892 ft | 420 kts | 280° |
| 2026-04-30 11:40 | 50.99002 | 8.08956 | 17316 ft | 416 kts | 280° |
| 2026-04-30 11:40 | 50.99445 | 8.04437 | 16738 ft | 413 kts | 280° |
| 2026-04-30 11:40 | 50.99883 | 7.99952 | 16212 ft | 409 kts | 280° |
| 2026-04-30 11:41 | 51.00313 | 7.95501 | 15695 ft | 406 kts | 280° |
| 2026-04-30 11:41 | 51.00736 | 7.91082 | 15181 ft | 403 kts | 279° |
| 2026-04-30 11:41 | 51.01149 | 7.86692 | 14665 ft | 400 kts | 279° |
| 2026-04-30 11:41 | 51.01559 | 7.82332 | 14175 ft | 398 kts | 279° |
| 2026-04-30 11:42 | 51.01967 | 7.78003 | 13644 ft | 394 kts | 279° |
| 2026-04-30 11:42 | 51.02373 | 7.73715 | 13097 ft | 391 kts | 279° |
| 2026-04-30 11:42 | 51.02776 | 7.69456 | 12524 ft | 389 kts | 279° |
| 2026-04-30 11:42 | 51.03173 | 7.65220 | 11958 ft | 386 kts | 279° |
| 2026-04-30 11:43 | 51.03564 | 7.61016 | 11405 ft | 383 kts | 278° |
| 2026-04-30 11:43 | 51.03946 | 7.56872 | 11085 ft | 373 kts | 278° |
| 2026-04-30 11:43 | 51.04314 | 7.52872 | 10959 ft | 359 kts | 278° |
| 2026-04-30 11:43 | 51.04669 | 7.49017 | 10833 ft | 346 kts | 278° |
| 2026-04-30 11:44 | 51.05010 | 7.45300 | 10708 ft | 334 kts | 278° |
| 2026-04-30 11:44 | 51.05340 | 7.41703 | 10594 ft | 324 kts | 278° |
| 2026-04-30 11:44 | 51.05658 | 7.38217 | 10455 ft | 314 kts | 278° |
| 2026-04-30 11:44 | 51.05962 | 7.34837 | 10346 ft | 304 kts | 278° |
| 2026-04-30 11:45 | 51.06256 | 7.31565 | 10218 ft | 295 kts | 278° |
| 2026-04-30 11:45 | 51.06556 | 7.28392 | 10086 ft | 286 kts | 282° |
| 2026-04-30 11:45 | 51.07309 | 7.25566 | 9951 ft | 274 kts | 309° |
| 2026-04-30 11:45 | 51.08631 | 7.23532 | 9816 ft | 258 kts | 332° |
| 2026-04-30 11:46 | 51.10237 | 7.22470 | 9611 ft | 245 kts | 355° |
| 2026-04-30 11:46 | 51.11894 | 7.22378 | 9419 ft | 234 kts | 15° |
| 2026-04-30 11:46 | 51.13414 | 7.23134 | 9376 ft | 227 kts | 34° |
| 2026-04-30 11:46 | 51.14670 | 7.24586 | 9393 ft | 221 kts | 51° |
| 2026-04-30 11:47 | 51.15549 | 7.26551 | 9394 ft | 216 kts | 68° |
| 2026-04-30 11:47 | 51.15991 | 7.28807 | 9388 ft | 213 kts | 84° |
| 2026-04-30 11:47 | 51.16004 | 7.31151 | 9394 ft | 212 kts | 96° |
| 2026-04-30 11:47 | 51.15824 | 7.33474 | 9397 ft | 212 kts | 99° |
| 2026-04-30 11:48 | 51.15595 | 7.35788 | 9387 ft | 211 kts | 99° |
| 2026-04-30 11:48 | 51.15359 | 7.38098 | 9390 ft | 211 kts | 99° |
| 2026-04-30 11:48 | 51.15125 | 7.40407 | 9398 ft | 211 kts | 99° |
| 2026-04-30 11:48 | 51.14894 | 7.42715 | 9399 ft | 211 kts | 99° |
| 2026-04-30 11:49 | 51.14577 | 7.44997 | 9387 ft | 212 kts | 109° |
| 2026-04-30 11:49 | 51.13906 | 7.47080 | 9395 ft | 213 kts | 124° |
| 2026-04-30 11:49 | 51.12864 | 7.48779 | 9381 ft | 217 kts | 140° |
| 2026-04-30 11:49 | 51.11513 | 7.49899 | 9381 ft | 223 kts | 158° |
| 2026-04-30 11:50 | 51.09956 | 7.50277 | 9392 ft | 231 kts | 176° |
| 2026-04-30 11:50 | 51.08353 | 7.49798 | 9397 ft | 240 kts | 196° |
| 2026-04-30 11:50 | 51.06899 | 7.48431 | 9397 ft | 248 kts | 217° |
| 2026-04-30 11:50 | 51.05807 | 7.46270 | 9378 ft | 255 kts | 239° |
| 2026-04-30 11:51 | 51.05267 | 7.43578 | 9382 ft | 259 kts | 263° |
| 2026-04-30 11:51 | 51.05368 | 7.40720 | 9393 ft | 260 kts | 280° |
| 2026-04-30 11:51 | 51.05657 | 7.37876 | 9378 ft | 261 kts | 278° |
| 2026-04-30 11:51 | 51.05931 | 7.35024 | 9378 ft | 261 kts | 278° |
| 2026-04-30 11:52 | 51.06199 | 7.32166 | 9380 ft | 262 kts | 278° |
| 2026-04-30 11:52 | 51.06465 | 7.29309 | 9382 ft | 262 kts | 278° |
| 2026-04-30 11:52 | 51.07010 | 7.26576 | 9394 ft | 259 kts | 304° |
| 2026-04-30 11:52 | 51.08220 | 7.24535 | 9389 ft | 252 kts | 332° |
| 2026-04-30 11:53 | 51.09814 | 7.23568 | 9383 ft | 242 kts | 359° |
| 2026-04-30 11:53 | 51.11444 | 7.23749 | 9388 ft | 232 kts | 24° |
| 2026-04-30 11:53 | 51.12831 | 7.24905 | 9394 ft | 222 kts | 46° |
| 2026-04-30 11:53 | 51.13796 | 7.26759 | 9393 ft | 216 kts | 67° |
| 2026-04-30 11:54 | 51.14245 | 7.29004 | 9392 ft | 212 kts | 86° |
| 2026-04-30 11:54 | 51.14206 | 7.31336 | 9393 ft | 211 kts | 97° |
| 2026-04-30 11:54 | 51.14010 | 7.33656 | 9393 ft | 211 kts | 99° |
| 2026-04-30 11:54 | 51.13777 | 7.35966 | 9383 ft | 211 kts | 99° |
| 2026-04-30 11:55 | 51.13540 | 7.38272 | 9394 ft | 211 kts | 99° |
| 2026-04-30 11:55 | 51.13308 | 7.40577 | 9395 ft | 211 kts | 99° |
| 2026-04-30 11:55 | 51.13031 | 7.42867 | 9394 ft | 211 kts | 107° |
| 2026-04-30 11:55 | 51.12366 | 7.44947 | 9395 ft | 214 kts | 126° |
| 2026-04-30 11:56 | 51.11260 | 7.46537 | 9384 ft | 219 kts | 146° |
| 2026-04-30 11:56 | 51.09906 | 7.47281 | 9400 ft | 260 kts | 171° |
| 2026-04-30 11:56 | 51.08486 | 7.47021 | 9263 ft | 279 kts | 195° |
| 2026-04-30 11:56 | 51.06860 | 7.45241 | 8788 ft | 293 kts | 225° |
| 2026-04-30 11:57 | 51.05799 | 7.42447 | 8475 ft | 299 kts | 248° |
| 2026-04-30 11:57 | 51.05486 | 7.39170 | 8341 ft | 304 kts | 271° |
| 2026-04-30 11:57 | 51.05602 | 7.35797 | 8213 ft | 306 kts | 273° |
| 2026-04-30 11:57 | 51.05751 | 7.32428 | 8083 ft | 306 kts | 273° |
| 2026-04-30 11:58 | 51.05911 | 7.29063 | 7959 ft | 305 kts | 274° |
| 2026-04-30 11:58 | 51.06074 | 7.25699 | 7829 ft | 305 kts | 274° |
| 2026-04-30 11:58 | 51.06235 | 7.22341 | 7631 ft | 303 kts | 273° |
| 2026-04-30 11:58 | 51.06390 | 7.19014 | 7246 ft | 301 kts | 273° |
| 2026-04-30 11:59 | 51.06535 | 7.15771 | 6893 ft | 301 kts | 273° |
| 2026-04-30 11:59 | 51.06676 | 7.12511 | 6575 ft | 296 kts | 272° |
| 2026-04-30 11:59 | 51.06813 | 7.09342 | 6409 ft | 282 kts | 272° |
| 2026-04-30 11:59 | 51.06944 | 7.06266 | 6124 ft | 277 kts | 272° |
| 2026-04-30 12:00 | 51.07073 | 7.03225 | 5865 ft | 273 kts | 272° |
| 2026-04-30 12:00 | 51.07200 | 7.00260 | 5639 ft | 267 kts | 272° |
| 2026-04-30 12:00 | 51.07329 | 6.97333 | 5425 ft | 262 kts | 272° |
| 2026-04-30 12:00 | 51.07250 | 6.94517 | 5300 ft | 249 kts | 246° |
| 2026-04-30 12:01 | 51.06298 | 6.92442 | 5160 ft | 225 kts | 203° |
| 2026-04-30 12:01 | 51.04901 | 6.91951 | 5036 ft | 197 kts | 160° |
| 2026-04-30 12:01 | 51.03857 | 6.93089 | 4883 ft | 182 kts | 120° |
| 2026-04-30 12:01 | 51.03205 | 6.94792 | 4695 ft | 182 kts | 130° |
| 2026-04-30 12:02 | 51.02036 | 6.95687 | 4313 ft | 198 kts | 165° |
| 2026-04-30 12:02 | 51.00676 | 6.96077 | 3940 ft | 199 kts | 162° |
| 2026-04-30 12:02 | 50.99385 | 6.96853 | 3416 ft | 199 kts | 146° |
| 2026-04-30 12:02 | 50.98275 | 6.98119 | 3050 ft | 194 kts | 137° |
| 2026-04-30 12:03 | 50.97272 | 6.99500 | 2764 ft | 187 kts | 136° |
| 2026-04-30 12:03 | 50.95420 | 7.02178 | 2270 ft | 171 kts | 135° |
| 2026-04-30 12:03 | 50.94573 | 7.03408 | 2035 ft | 159 kts | 135° |
| 2026-04-30 12:04 | 50.93747 | 7.04523 | 1827 ft | 151 kts | 138° |
| 2026-04-30 12:04 | 50.92995 | 7.05583 | 1715 ft | 138 kts | 134° |
| 2026-04-30 12:04 | 50.92332 | 7.06588 | 1616 ft | 128 kts | 132° |
| 2026-04-30 12:04 | 50.91692 | 7.07550 | 1312 ft | 126 kts | 133° |
| 2026-04-30 12:05 | 50.91046 | 7.08502 | 1066 ft | 126 kts | 135° |
| 2026-04-30 12:05 | 50.90405 | 7.09440 | 831 ft | 126 kts | 133° |
| 2026-04-30 12:05 | 50.89773 | 7.10377 | 676 ft | 123 kts | 134° |
| 2026-04-30 12:05 | 50.89148 | 7.11298 | 522 ft | 123 kts | 133° |
| 2026-04-30 12:06 | 50.88504 | 7.12238 | 394 ft | 128 kts | 133° |
| 2026-04-30 12:06 | 50.87844 | 7.13201 | 266 ft | 128 kts | 133° |
| 2026-04-30 12:06 | 50.87234 | 7.14082 | 331 ft | 118 kts | 134° |
| 2026-04-30 12:06 | 50.86543 | 7.15111 | 876 ft | 150 kts | 132° |
| 2026-04-30 12:07 | 50.85762 | 7.16300 | 1908 ft | 163 kts | 132° |
| 2026-04-30 12:07 | 50.84905 | 7.17651 | 2533 ft | 184 kts | 128° |
| 2026-04-30 12:07 | 50.84383 | 7.19511 | 2947 ft | 193 kts | 96° |
| 2026-04-30 12:07 | 50.84687 | 7.21575 | 2993 ft | 200 kts | 62° |
| 2026-04-30 12:08 | 50.85523 | 7.23335 | 2990 ft | 201 kts | 54° |
| 2026-04-30 12:08 | 50.86445 | 7.25031 | 3005 ft | 203 kts | 53° |
| 2026-04-30 12:08 | 50.87458 | 7.26596 | 3010 ft | 209 kts | 37° |
| 2026-04-30 12:08 | 50.88881 | 7.27145 | 3014 ft | 220 kts | 2° |
| 2026-04-30 12:09 | 50.90408 | 7.26836 | 3013 ft | 223 kts | 353° |
| 2026-04-30 12:09 | 50.91872 | 7.25948 | 3013 ft | 228 kts | 336° |
| 2026-04-30 12:09 | 50.92817 | 7.25150 | 3008 ft | 228 kts | 333° |
| 2026-04-30 12:09 | 50.94656 | 7.23549 | 3008 ft | 227 kts | 334° |
| 2026-04-30 12:10 | 50.95589 | 7.22725 | 3000 ft | 225 kts | 334° |
| 2026-04-30 12:10 | 50.96958 | 7.21501 | 2999 ft | 225 kts | 333° |
| 2026-04-30 12:10 | 50.98312 | 7.20282 | 3005 ft | 224 kts | 332° |
| 2026-04-30 12:10 | 50.99526 | 7.18698 | 3011 ft | 227 kts | 317° |
| 2026-04-30 12:11 | 51.00601 | 7.16862 | 3017 ft | 227 kts | 314° |
| 2026-04-30 12:11 | 51.01630 | 7.14947 | 3009 ft | 227 kts | 306° |
| 2026-04-30 12:11 | 51.02436 | 7.12767 | 3013 ft | 230 kts | 299° |
| 2026-04-30 12:11 | 51.03180 | 7.10530 | 3017 ft | 230 kts | 298° |
| 2026-04-30 12:12 | 51.03936 | 7.08282 | 3012 ft | 231 kts | 298° |
| 2026-04-30 12:12 | 51.04625 | 7.06001 | 3011 ft | 232 kts | 288° |
| 2026-04-30 12:12 | 51.05073 | 7.03568 | 3010 ft | 220 kts | 285° |
| 2026-04-30 12:12 | 51.05434 | 7.01273 | 3064 ft | 212 kts | 283° |
| 2026-04-30 12:13 | 51.05615 | 6.99009 | 3004 ft | 203 kts | 262° |
| 2026-04-30 12:13 | 51.05169 | 6.96954 | 3022 ft | 199 kts | 231° |
| 2026-04-30 12:13 | 51.04254 | 6.95377 | 3009 ft | 193 kts | 210° |
| 2026-04-30 12:13 | 51.03076 | 6.94483 | 3029 ft | 186 kts | 186° |
| 2026-04-30 12:14 | 51.01825 | 6.94320 | 3006 ft | 177 kts | 169° |
| 2026-04-30 12:14 | 51.00665 | 6.94835 | 3005 ft | 171 kts | 150° |
| 2026-04-30 12:14 | 50.99705 | 6.95919 | 3014 ft | 170 kts | 135° |
| 2026-04-30 12:14 | 50.98842 | 6.97178 | 3008 ft | 168 kts | 134° |
| 2026-04-30 12:15 | 50.97979 | 6.98443 | 2876 ft | 169 kts | 134° |
| 2026-04-30 12:15 | 50.97114 | 6.99708 | 2700 ft | 169 kts | 135° |
| 2026-04-30 12:15 | 50.96264 | 7.00946 | 2478 ft | 163 kts | 134° |
| 2026-04-30 12:15 | 50.95443 | 7.02142 | 2268 ft | 155 kts | 134° |
| 2026-04-30 12:16 | 50.94682 | 7.03248 | 2067 ft | 142 kts | 134° |
| 2026-04-30 12:16 | 50.93959 | 7.04303 | 1871 ft | 137 kts | 134° |
| 2026-04-30 12:16 | 50.93289 | 7.05293 | 1665 ft | 132 kts | 135° |
| 2026-04-30 12:16 | 50.92600 | 7.06256 | 1550 ft | 133 kts | 135° |
| 2026-04-30 12:17 | 50.91232 | 7.08216 | 1125 ft | 131 kts | 133° |
| 2026-04-30 12:17 | 50.90564 | 7.09208 | 932 ft | 132 kts | 132° |
| 2026-04-30 12:17 | 50.89904 | 7.10175 | 740 ft | 127 kts | 134° |
| 2026-04-30 12:18 | 50.89267 | 7.11118 | 576 ft | 125 kts | 133° |
| 2026-04-30 12:18 | 50.88618 | 7.12076 | 405 ft | 131 kts | 133° |
| 2026-04-30 12:18 | 50.87944 | 7.13055 | 271 ft | 131 kts | 133° |
| 2026-04-30 12:18 | 50.87323 | 7.13963 | 242 ft | 106 kts | 135° |
| 2026-04-30 12:19 | 50.86943 | 7.14500 | 258 ft | 29 kts | 142° |
| 2026-04-30 12:19 | 50.86876 | 7.14439 | 260 ft | 14 kts | 279° |
| 2026-04-30 12:19 | 50.86893 | 7.14280 | 257 ft | 16 kts | 279° |
| 2026-04-30 12:19 | 50.86911 | 7.14104 | 255 ft | 16 kts | 279° |
| 2026-04-30 12:20 | 50.86934 | 7.13923 | 249 ft | 17 kts | 305° |
| 2026-04-30 12:20 | 50.87028 | 7.13772 | 243 ft | 20 kts | 316° |
| 2026-04-30 12:20 | 50.87134 | 7.13619 | 239 ft | 21 kts | 318° |
| 2026-04-30 12:20 | 50.87244 | 7.13458 | 234 ft | 22 kts | 318° |
| 2026-04-30 12:21 | 50.87358 | 7.13296 | 232 ft | 22 kts | 317° |
| 2026-04-30 12:21 | 50.87465 | 7.13140 | 232 ft | 20 kts | 317° |
| 2026-04-30 12:21 | 50.87565 | 7.12995 | 232 ft | 19 kts | 317° |
| 2026-04-30 12:21 | 50.87659 | 7.12857 | 232 ft | 18 kts | 317° |
| 2026-04-30 12:22 | 50.87748 | 7.12728 | 232 ft | 17 kts | 317° |
| 2026-04-30 12:22 | 50.87753 | 7.12568 | 233 ft | 15 kts | 242° |
| 2026-04-30 12:22 | 50.87693 | 7.12510 | 232 ft | 9 kts | 198° |
| 2026-04-30 12:22 | 50.87646 | 7.12484 | 232 ft | 1 kts | 212° |
| 2026-04-30 12:23 | 50.87637 | 7.12472 | 234 ft | 5 kts | 224° |
| 2026-04-30 12:23 | 50.87639 | 7.12410 | 232 ft | 5 kts | 283° |
| 2026-04-30 12:23 | 50.87648 | 7.12362 | 233 ft | 3 kts | 287° |
| 2026-04-30 12:23 | 50.87648 | 7.12361 | 232 ft | 0 kts | 287° |